Weather at Indian Village Airport

Public forecast

Using degrees Fahrenheit for public forecast. Weather courtesy of forecast.io.

Closest aviation weather report (METAR) to Indian Village Airport

Closest report is Chennault International Airport, 16.7 nm (30.9 km) SSW.

2023/09/29 19:45 (retrieved 40 minutes ago)

KCWF 291945Z 08009KT 10SM SCT046 32/20 A2995

Closest aviation forecast (TAF) to Indian Village Airport

Closest forecast is Lake Charles Regional Airport, 23.2 nm (43.0 km) SW.

2023/09/29 18:39 (retrieved 2 hours ago)

TAF KLCH 291736Z 2918/3018 10011G18KT P6SM FEW030 FM300200 VRB05KT P6SM SKC FM301000 VRB04KT 5SM BR SKC FM301400 08010G18KT P6SM SKC